Terminal Aerodrome Forecast
Issued by NWS Cleveland, OH

Home | Current Version | Previous Version | Text Only | Print | Product List | Glossary On
Versions: 1 2 3 4 5 6 7 8 9 10 11 12 13 14 15 16 17 18 19 20 21 22
000
FTUS41 KCLE 230539
TAFCAK
TAF
KCAK 230539Z 2306/2406 18014KT P6SM SCT040 BKN060
      TEMPO 2306/2308 3SM -TSRA BKN020CB
     FM230800 21011KT P6SM SCT025 BKN040
     FM231400 23014G22KT 5SM -SHRA OVC025
     FM232100 24018G28KT 5SM -SHRASN OVC018=

USA.gov is the U.S. government's official web portal to all federal, state and local government web resources and services.